sensor_id;sensor_type;location;lat;lon;timestamp;P1;durP1;ratioP1;P2;durP2;ratioP2
69026;SDS011;56080;47.594;19.116;2022-08-05T00:02:28;6.00;;;4.80;;
69026;SDS011;56080;47.594;19.116;2022-08-05T00:07:37;6.70;;;4.80;;
69026;SDS011;56080;47.594;19.116;2022-08-05T00:12:28;6.70;;;4.80;;
69026;SDS011;56080;47.594;19.116;2022-08-05T00:17:30;6.40;;;4.70;;
69026;SDS011;56080;47.594;19.116;2022-08-05T00:22:28;6.40;;;4.70;;
69026;SDS011;56080;47.594;19.116;2022-08-05T00:27:28;7.40;;;5.00;;
69026;SDS011;56080;47.594;19.116;2022-08-05T00:32:28;7.40;;;5.00;;
69026;SDS011;56080;47.594;19.116;2022-08-05T00:37:31;6.30;;;4.70;;
69026;SDS011;56080;47.594;19.116;2022-08-05T00:42:38;6.30;;;4.70;;
69026;SDS011;56080;47.594;19.116;2022-08-05T00:47:29;6.20;;;5.00;;
69026;SDS011;56080;47.594;19.116;2022-08-05T00:52:37;6.20;;;5.00;;
69026;SDS011;56080;47.594;19.116;2022-08-05T00:57:31;6.40;;;4.60;;
69026;SDS011;56080;47.594;19.116;2022-08-05T01:02:28;6.40;;;4.60;;
69026;SDS011;56080;47.594;19.116;2022-08-05T01:07:28;8.10;;;4.50;;
69026;SDS011;56080;47.594;19.116;2022-08-05T01:12:30;8.10;;;4.50;;
69026;SDS011;56080;47.594;19.116;2022-08-05T01:17:37;5.90;;;4.50;;
69026;SDS011;56080;47.594;19.116;2022-08-05T01:32:32;6.80;;;4.80;;
69026;SDS011;56080;47.594;19.116;2022-08-05T01:42:29;6.20;;;4.70;;
69026;SDS011;56080;47.594;19.116;2022-08-05T01:47:30;6.40;;;4.80;;
69026;SDS011;56080;47.594;19.116;2022-08-05T01:52:31;6.40;;;4.80;;
69026;SDS011;56080;47.594;19.116;2022-08-05T01:57:40;6.20;;;4.80;;
69026;SDS011;56080;47.594;19.116;2022-08-05T02:02:30;6.20;;;4.80;;
69026;SDS011;56080;47.594;19.116;2022-08-05T02:07:33;6.30;;;4.70;;
69026;SDS011;56080;47.594;19.116;2022-08-05T02:17:47;5.60;;;4.10;;
69026;SDS011;56080;47.594;19.116;2022-08-05T02:22:41;5.60;;;4.10;;
69026;SDS011;56080;47.594;19.116;2022-08-05T02:27:39;6.10;;;4.40;;
69026;SDS011;56080;47.594;19.116;2022-08-05T02:32:38;6.10;;;4.40;;
69026;SDS011;56080;47.594;19.116;2022-08-05T02:37:29;5.60;;;4.10;;
69026;SDS011;56080;47.594;19.116;2022-08-05T02:42:38;5.60;;;4.10;;
69026;SDS011;56080;47.594;19.116;2022-08-05T02:47:30;6.10;;;4.20;;
69026;SDS011;56080;47.594;19.116;2022-08-05T02:52:39;6.10;;;4.20;;
69026;SDS011;56080;47.594;19.116;2022-08-05T02:57:38;6.20;;;4.10;;
69026;SDS011;56080;47.594;19.116;2022-08-05T03:02:30;6.20;;;4.10;;
69026;SDS011;56080;47.594;19.116;2022-08-05T03:07:38;5.70;;;4.20;;
69026;SDS011;56080;47.594;19.116;2022-08-05T03:12:38;5.70;;;4.20;;
69026;SDS011;56080;47.594;19.116;2022-08-05T03:17:30;5.90;;;4.30;;
69026;SDS011;56080;47.594;19.116;2022-08-05T03:22:38;5.90;;;4.30;;
69026;SDS011;56080;47.594;19.116;2022-08-05T03:27:29;6.00;;;4.50;;
69026;SDS011;56080;47.594;19.116;2022-08-05T03:32:30;6.00;;;4.50;;
69026;SDS011;56080;47.594;19.116;2022-08-05T03:37:29;6.40;;;4.70;;
69026;SDS011;56080;47.594;19.116;2022-08-05T03:42:29;6.40;;;4.70;;
69026;SDS011;56080;47.594;19.116;2022-08-05T03:47:28;6.10;;;4.60;;
69026;SDS011;56080;47.594;19.116;2022-08-05T03:52:51;6.10;;;4.60;;
69026;SDS011;56080;47.594;19.116;2022-08-05T03:57:31;5.70;;;4.20;;
69026;SDS011;56080;47.594;19.116;2022-08-05T04:02:40;5.70;;;4.20;;
69026;SDS011;56080;47.594;19.116;2022-08-05T04:07:38;6.20;;;4.40;;
69026;SDS011;56080;47.594;19.116;2022-08-05T04:12:35;6.20;;;4.40;;
69026;SDS011;56080;47.594;19.116;2022-08-05T04:17:29;6.10;;;4.50;;
69026;SDS011;56080;47.594;19.116;2022-08-05T04:22:31;6.10;;;4.50;;
69026;SDS011;56080;47.594;19.116;2022-08-05T04:27:29;6.00;;;4.60;;
69026;SDS011;56080;47.594;19.116;2022-08-05T04:32:38;6.00;;;4.60;;
69026;SDS011;56080;47.594;19.116;2022-08-05T04:37:28;6.00;;;4.30;;
69026;SDS011;56080;47.594;19.116;2022-08-05T04:42:36;6.00;;;4.30;;
69026;SDS011;56080;47.594;19.116;2022-08-05T04:47:30;5.60;;;4.00;;
69026;SDS011;56080;47.594;19.116;2022-08-05T04:52:29;5.60;;;4.00;;
69026;SDS011;56080;47.594;19.116;2022-08-05T04:57:28;5.50;;;4.10;;
69026;SDS011;56080;47.594;19.116;2022-08-05T05:02:37;5.50;;;4.10;;
69026;SDS011;56080;47.594;19.116;2022-08-05T05:07:28;6.00;;;4.00;;
69026;SDS011;56080;47.594;19.116;2022-08-05T05:12:28;6.00;;;4.00;;
69026;SDS011;56080;47.594;19.116;2022-08-05T05:17:35;6.10;;;4.30;;
69026;SDS011;56080;47.594;19.116;2022-08-05T05:22:36;6.10;;;4.30;;
69026;SDS011;56080;47.594;19.116;2022-08-05T05:27:32;9.80;;;4.50;;
69026;SDS011;56080;47.594;19.116;2022-08-05T05:32:28;9.80;;;4.50;;
69026;SDS011;56080;47.594;19.116;2022-08-05T05:37:28;5.60;;;3.70;;
69026;SDS011;56080;47.594;19.116;2022-08-05T05:42:31;5.60;;;3.70;;
69026;SDS011;56080;47.594;19.116;2022-08-05T05:47:39;5.70;;;3.70;;
69026;SDS011;56080;47.594;19.116;2022-08-05T05:52:38;5.70;;;3.70;;
69026;SDS011;56080;47.594;19.116;2022-08-05T05:57:29;5.00;;;3.60;;
69026;SDS011;56080;47.594;19.116;2022-08-05T06:02:38;5.00;;;3.60;;
69026;SDS011;56080;47.594;19.116;2022-08-05T06:07:33;4.90;;;3.40;;
69026;SDS011;56080;47.594;19.116;2022-08-05T06:12:30;4.90;;;3.40;;
69026;SDS011;56080;47.594;19.116;2022-08-05T06:17:35;5.50;;;3.40;;
69026;SDS011;56080;47.594;19.116;2022-08-05T06:22:33;5.50;;;3.40;;
69026;SDS011;56080;47.594;19.116;2022-08-05T06:27:38;5.70;;;3.10;;
69026;SDS011;56080;47.594;19.116;2022-08-05T06:32:38;5.70;;;3.10;;
69026;SDS011;56080;47.594;19.116;2022-08-05T06:37:38;5.90;;;2.90;;
69026;SDS011;56080;47.594;19.116;2022-08-05T06:42:28;5.90;;;2.90;;
69026;SDS011;56080;47.594;19.116;2022-08-05T06:47:38;4.40;;;2.60;;
69026;SDS011;56080;47.594;19.116;2022-08-05T06:52:38;4.40;;;2.60;;
69026;SDS011;56080;47.594;19.116;2022-08-05T06:57:38;4.60;;;2.80;;
69026;SDS011;56080;47.594;19.116;2022-08-05T07:02:40;4.60;;;2.80;;
69026;SDS011;56080;47.594;19.116;2022-08-05T07:07:38;5.70;;;2.90;;
69026;SDS011;56080;47.594;19.116;2022-08-05T07:12:38;5.70;;;2.90;;
69026;SDS011;56080;47.594;19.116;2022-08-05T07:17:39;5.60;;;2.60;;
69026;SDS011;56080;47.594;19.116;2022-08-05T07:22:31;5.60;;;2.60;;
69026;SDS011;56080;47.594;19.116;2022-08-05T07:27:28;5.50;;;2.70;;
69026;SDS011;56080;47.594;19.116;2022-08-05T07:32:37;5.50;;;2.70;;
69026;SDS011;56080;47.594;19.116;2022-08-05T07:37:29;6.40;;;2.60;;
69026;SDS011;56080;47.594;19.116;2022-08-05T07:42:38;6.40;;;2.60;;
69026;SDS011;56080;47.594;19.116;2022-08-05T07:47:28;5.30;;;3.00;;
69026;SDS011;56080;47.594;19.116;2022-08-05T07:52:29;5.30;;;3.00;;
69026;SDS011;56080;47.594;19.116;2022-08-05T07:57:38;5.90;;;2.50;;
69026;SDS011;56080;47.594;19.116;2022-08-05T08:02:32;5.90;;;2.50;;
69026;SDS011;56080;47.594;19.116;2022-08-05T08:07:33;6.90;;;2.40;;
69026;SDS011;56080;47.594;19.116;2022-08-05T08:12:38;6.90;;;2.40;;
69026;SDS011;56080;47.594;19.116;2022-08-05T08:17:31;4.50;;;2.30;;
69026;SDS011;56080;47.594;19.116;2022-08-05T08:22:34;4.50;;;2.30;;
69026;SDS011;56080;47.594;19.116;2022-08-05T08:27:29;3.90;;;2.20;;
69026;SDS011;56080;47.594;19.116;2022-08-05T08:32:38;3.90;;;2.20;;
69026;SDS011;56080;47.594;19.116;2022-08-05T08:37:38;5.50;;;2.60;;
69026;SDS011;56080;47.594;19.116;2022-08-05T08:42:39;5.50;;;2.60;;
69026;SDS011;56080;47.594;19.116;2022-08-05T08:47:39;6.50;;;2.90;;
69026;SDS011;56080;47.594;19.116;2022-08-05T08:52:32;6.50;;;2.90;;
69026;SDS011;56080;47.594;19.116;2022-08-05T08:57:33;6.30;;;3.70;;
69026;SDS011;56080;47.594;19.116;2022-08-05T09:02:29;6.30;;;3.70;;
69026;SDS011;56080;47.594;19.116;2022-08-05T09:07:38;5.30;;;2.90;;
69026;SDS011;56080;47.594;19.116;2022-08-05T09:12:38;5.30;;;2.90;;
69026;SDS011;56080;47.594;19.116;2022-08-05T09:17:39;6.30;;;3.20;;
69026;SDS011;56080;47.594;19.116;2022-08-05T09:27:40;5.50;;;3.00;;
69026;SDS011;56080;47.594;19.116;2022-08-05T09:32:46;5.50;;;3.00;;
69026;SDS011;56080;47.594;19.116;2022-08-05T09:37:48;5.10;;;3.30;;
69026;SDS011;56080;47.594;19.116;2022-08-05T09:42:38;5.10;;;3.30;;
69026;SDS011;56080;47.594;19.116;2022-08-05T09:47:32;5.80;;;3.10;;
69026;SDS011;56080;47.594;19.116;2022-08-05T09:52:30;5.80;;;3.10;;
69026;SDS011;56080;47.594;19.116;2022-08-05T09:57:42;5.20;;;3.20;;
69026;SDS011;56080;47.594;19.116;2022-08-05T10:02:43;5.20;;;3.20;;
69026;SDS011;56080;47.594;19.116;2022-08-05T10:12:39;6.90;;;3.70;;
69026;SDS011;56080;47.594;19.116;2022-08-05T10:22:39;5.00;;;3.70;;
69026;SDS011;56080;47.594;19.116;2022-08-05T10:27:37;5.70;;;3.40;;
69026;SDS011;56080;47.594;19.116;2022-08-05T10:32:38;5.70;;;3.40;;
69026;SDS011;56080;47.594;19.116;2022-08-05T10:37:29;5.70;;;3.40;;
69026;SDS011;56080;47.594;19.116;2022-08-05T10:42:38;5.70;;;3.50;;
69026;SDS011;56080;47.594;19.116;2022-08-05T10:47:40;5.50;;;3.30;;
69026;SDS011;56080;47.594;19.116;2022-08-05T10:52:39;5.50;;;3.30;;
69026;SDS011;56080;47.594;19.116;2022-08-05T10:57:36;5.50;;;3.70;;
69026;SDS011;56080;47.594;19.116;2022-08-05T11:02:48;5.50;;;3.70;;
69026;SDS011;56080;47.594;19.116;2022-08-05T11:12:41;5.00;;;3.40;;
69026;SDS011;56080;47.594;19.116;2022-08-05T11:17:39;5.00;;;3.40;;
69026;SDS011;56080;47.594;19.116;2022-08-05T11:22:42;4.50;;;3.10;;
69026;SDS011;56080;47.594;19.116;2022-08-05T11:27:38;4.50;;;3.10;;
69026;SDS011;56080;47.594;19.116;2022-08-05T11:32:34;5.30;;;3.60;;
69026;SDS011;56080;47.594;19.116;2022-08-05T11:42:32;5.60;;;3.40;;
69026;SDS011;56080;47.594;19.116;2022-08-05T11:47:34;5.60;;;3.40;;
69026;SDS011;56080;47.594;19.116;2022-08-05T11:52:34;5.40;;;3.70;;
69026;SDS011;56080;47.594;19.116;2022-08-05T11:57:38;5.40;;;3.70;;
69026;SDS011;56080;47.594;19.116;2022-08-05T12:02:36;4.70;;;3.30;;
69026;SDS011;56080;47.594;19.116;2022-08-05T12:07:42;4.70;;;3.30;;
69026;SDS011;56080;47.594;19.116;2022-08-05T12:12:31;5.90;;;2.90;;
69026;SDS011;56080;47.594;19.116;2022-08-05T12:17:44;5.90;;;2.90;;
69026;SDS011;56080;47.594;19.116;2022-08-05T12:22:35;5.50;;;3.00;;
69026;SDS011;56080;47.594;19.116;2022-08-05T12:27:38;5.50;;;3.00;;
69026;SDS011;56080;47.594;19.116;2022-08-05T12:32:32;4.60;;;2.70;;
69026;SDS011;56080;47.594;19.116;2022-08-05T12:37:33;4.60;;;2.70;;
69026;SDS011;56080;47.594;19.116;2022-08-05T12:42:30;4.90;;;2.80;;
69026;SDS011;56080;47.594;19.116;2022-08-05T12:47:37;4.90;;;2.80;;
69026;SDS011;56080;47.594;19.116;2022-08-05T12:52:38;5.00;;;2.90;;
69026;SDS011;56080;47.594;19.116;2022-08-05T12:57:34;5.00;;;2.90;;
69026;SDS011;56080;47.594;19.116;2022-08-05T13:02:34;5.70;;;2.70;;
69026;SDS011;56080;47.594;19.116;2022-08-05T13:07:39;5.70;;;2.70;;
69026;SDS011;56080;47.594;19.116;2022-08-05T13:12:30;5.40;;;3.30;;
69026;SDS011;56080;47.594;19.116;2022-08-05T13:22:39;5.70;;;3.10;;
69026;SDS011;56080;47.594;19.116;2022-08-05T13:27:42;5.70;;;3.10;;
69026;SDS011;56080;47.594;19.116;2022-08-05T13:32:38;5.00;;;3.50;;
69026;SDS011;56080;47.594;19.116;2022-08-05T13:37:38;5.00;;;3.50;;
69026;SDS011;56080;47.594;19.116;2022-08-05T13:42:29;5.40;;;3.40;;
69026;SDS011;56080;47.594;19.116;2022-08-05T13:47:38;5.40;;;3.40;;
69026;SDS011;56080;47.594;19.116;2022-08-05T13:52:29;5.50;;;3.00;;
69026;SDS011;56080;47.594;19.116;2022-08-05T13:57:29;5.50;;;3.00;;
69026;SDS011;56080;47.594;19.116;2022-08-05T14:02:30;5.20;;;3.40;;
69026;SDS011;56080;47.594;19.116;2022-08-05T14:07:43;5.20;;;3.40;;
69026;SDS011;56080;47.594;19.116;2022-08-05T14:12:38;5.40;;;3.90;;
69026;SDS011;56080;47.594;19.116;2022-08-05T14:17:28;5.40;;;3.90;;
69026;SDS011;56080;47.594;19.116;2022-08-05T14:22:31;5.10;;;3.50;;
69026;SDS011;56080;47.594;19.116;2022-08-05T14:27:29;5.10;;;3.50;;
69026;SDS011;56080;47.594;19.116;2022-08-05T14:32:40;4.30;;;3.00;;
69026;SDS011;56080;47.594;19.116;2022-08-05T14:37:28;4.30;;;3.00;;
69026;SDS011;56080;47.594;19.116;2022-08-05T14:42:38;4.90;;;3.10;;
69026;SDS011;56080;47.594;19.116;2022-08-05T14:47:38;4.90;;;3.10;;
69026;SDS011;56080;47.594;19.116;2022-08-05T14:52:38;5.10;;;3.20;;
69026;SDS011;56080;47.594;19.116;2022-08-05T14:57:28;5.10;;;3.20;;
69026;SDS011;56080;47.594;19.116;2022-08-05T15:02:31;6.20;;;3.50;;
69026;SDS011;56080;47.594;19.116;2022-08-05T15:07:38;6.20;;;3.50;;
69026;SDS011;56080;47.594;19.116;2022-08-05T15:12:28;5.80;;;3.40;;
69026;SDS011;56080;47.594;19.116;2022-08-05T15:17:38;5.80;;;3.40;;
69026;SDS011;56080;47.594;19.116;2022-08-05T15:22:28;5.30;;;3.40;;
69026;SDS011;56080;47.594;19.116;2022-08-05T15:27:31;5.30;;;3.40;;
69026;SDS011;56080;47.594;19.116;2022-08-05T15:32:28;5.40;;;3.30;;
69026;SDS011;56080;47.594;19.116;2022-08-05T15:37:38;5.40;;;3.30;;
69026;SDS011;56080;47.594;19.116;2022-08-05T15:42:38;4.70;;;3.20;;
69026;SDS011;56080;47.594;19.116;2022-08-05T15:47:28;4.70;;;3.20;;
69026;SDS011;56080;47.594;19.116;2022-08-05T15:52:39;5.10;;;3.40;;
69026;SDS011;56080;47.594;19.116;2022-08-05T15:57:30;5.10;;;3.40;;
69026;SDS011;56080;47.594;19.116;2022-08-05T16:02:36;5.10;;;3.10;;
69026;SDS011;56080;47.594;19.116;2022-08-05T16:07:30;5.10;;;3.10;;
69026;SDS011;56080;47.594;19.116;2022-08-05T16:12:30;5.20;;;3.40;;
69026;SDS011;56080;47.594;19.116;2022-08-05T16:17:28;5.20;;;3.40;;
69026;SDS011;56080;47.594;19.116;2022-08-05T16:22:38;6.40;;;4.80;;
69026;SDS011;56080;47.594;19.116;2022-08-05T16:27:29;6.40;;;4.80;;
69026;SDS011;56080;47.594;19.116;2022-08-05T16:32:38;5.00;;;3.60;;
69026;SDS011;56080;47.594;19.116;2022-08-05T16:37:40;5.00;;;3.60;;
69026;SDS011;56080;47.594;19.116;2022-08-05T16:42:38;5.20;;;3.30;;
69026;SDS011;56080;47.594;19.116;2022-08-05T16:47:38;5.20;;;3.30;;
69026;SDS011;56080;47.594;19.116;2022-08-05T16:52:31;4.40;;;3.00;;
69026;SDS011;56080;47.594;19.116;2022-08-05T16:57:38;4.40;;;3.00;;
69026;SDS011;56080;47.594;19.116;2022-08-05T17:02:28;5.30;;;2.70;;
69026;SDS011;56080;47.594;19.116;2022-08-05T17:07:38;5.30;;;2.70;;
69026;SDS011;56080;47.594;19.116;2022-08-05T17:12:33;5.40;;;3.00;;
69026;SDS011;56080;47.594;19.116;2022-08-05T17:17:33;5.40;;;3.00;;
69026;SDS011;56080;47.594;19.116;2022-08-05T17:22:36;5.00;;;2.50;;
69026;SDS011;56080;47.594;19.116;2022-08-05T17:27:29;5.00;;;2.50;;
69026;SDS011;56080;47.594;19.116;2022-08-05T17:32:30;4.00;;;2.20;;
69026;SDS011;56080;47.594;19.116;2022-08-05T17:37:38;4.00;;;2.20;;
69026;SDS011;56080;47.594;19.116;2022-08-05T17:42:37;4.00;;;2.30;;
69026;SDS011;56080;47.594;19.116;2022-08-05T17:47:33;4.00;;;2.30;;
69026;SDS011;56080;47.594;19.116;2022-08-05T17:52:29;5.20;;;2.80;;
69026;SDS011;56080;47.594;19.116;2022-08-05T17:57:29;5.20;;;2.80;;
69026;SDS011;56080;47.594;19.116;2022-08-05T18:02:28;5.90;;;3.30;;
69026;SDS011;56080;47.594;19.116;2022-08-05T18:07:29;5.90;;;3.30;;
69026;SDS011;56080;47.594;19.116;2022-08-05T18:12:35;5.10;;;2.80;;
69026;SDS011;56080;47.594;19.116;2022-08-05T18:17:38;5.10;;;2.80;;
69026;SDS011;56080;47.594;19.116;2022-08-05T18:22:29;6.00;;;3.20;;
69026;SDS011;56080;47.594;19.116;2022-08-05T18:27:30;6.00;;;3.20;;
69026;SDS011;56080;47.594;19.116;2022-08-05T18:32:31;5.40;;;3.30;;
69026;SDS011;56080;47.594;19.116;2022-08-05T18:37:39;5.40;;;3.30;;
69026;SDS011;56080;47.594;19.116;2022-08-05T18:42:29;5.90;;;3.50;;
69026;SDS011;56080;47.594;19.116;2022-08-05T18:47:33;5.90;;;3.50;;
69026;SDS011;56080;47.594;19.116;2022-08-05T18:52:41;5.20;;;3.30;;
69026;SDS011;56080;47.594;19.116;2022-08-05T18:57:34;5.20;;;3.30;;
69026;SDS011;56080;47.594;19.116;2022-08-05T19:02:38;5.90;;;3.90;;
69026;SDS011;56080;47.594;19.116;2022-08-05T19:07:29;5.90;;;3.90;;
69026;SDS011;56080;47.594;19.116;2022-08-05T19:12:29;5.50;;;4.00;;
69026;SDS011;56080;47.594;19.116;2022-08-05T19:17:29;5.50;;;4.00;;
69026;SDS011;56080;47.594;19.116;2022-08-05T19:22:33;6.20;;;4.20;;
69026;SDS011;56080;47.594;19.116;2022-08-05T19:27:30;6.20;;;4.20;;
69026;SDS011;56080;47.594;19.116;2022-08-05T19:32:29;7.90;;;4.90;;
69026;SDS011;56080;47.594;19.116;2022-08-05T19:37:33;7.90;;;4.90;;
69026;SDS011;56080;47.594;19.116;2022-08-05T19:42:38;6.50;;;4.20;;
69026;SDS011;56080;47.594;19.116;2022-08-05T19:47:29;6.50;;;4.20;;
69026;SDS011;56080;47.594;19.116;2022-08-05T19:52:38;6.40;;;4.60;;
69026;SDS011;56080;47.594;19.116;2022-08-05T19:57:39;6.40;;;4.60;;
69026;SDS011;56080;47.594;19.116;2022-08-05T20:02:29;7.20;;;4.50;;
69026;SDS011;56080;47.594;19.116;2022-08-05T20:07:39;7.20;;;4.50;;
69026;SDS011;56080;47.594;19.116;2022-08-05T20:12:29;8.70;;;4.90;;
69026;SDS011;56080;47.594;19.116;2022-08-05T20:17:29;8.70;;;4.90;;
69026;SDS011;56080;47.594;19.116;2022-08-05T20:22:31;7.60;;;4.70;;
69026;SDS011;56080;47.594;19.116;2022-08-05T20:27:32;7.60;;;4.70;;
69026;SDS011;56080;47.594;19.116;2022-08-05T20:32:29;6.50;;;5.00;;
69026;SDS011;56080;47.594;19.116;2022-08-05T20:37:38;6.50;;;5.00;;
69026;SDS011;56080;47.594;19.116;2022-08-05T20:42:32;8.80;;;4.90;;
69026;SDS011;56080;47.594;19.116;2022-08-05T20:47:29;8.80;;;4.90;;
69026;SDS011;56080;47.594;19.116;2022-08-05T20:52:29;7.70;;;5.00;;
69026;SDS011;56080;47.594;19.116;2022-08-05T20:57:40;7.70;;;5.00;;
69026;SDS011;56080;47.594;19.116;2022-08-05T21:02:37;6.80;;;4.50;;
69026;SDS011;56080;47.594;19.116;2022-08-05T21:07:28;6.80;;;4.50;;
69026;SDS011;56080;47.594;19.116;2022-08-05T21:12:29;6.30;;;4.80;;
69026;SDS011;56080;47.594;19.116;2022-08-05T21:17:34;6.30;;;4.80;;
69026;SDS011;56080;47.594;19.116;2022-08-05T21:22:34;7.40;;;5.10;;
69026;SDS011;56080;47.594;19.116;2022-08-05T21:27:31;7.40;;;5.10;;
69026;SDS011;56080;47.594;19.116;2022-08-05T21:32:31;6.90;;;4.90;;
69026;SDS011;56080;47.594;19.116;2022-08-05T21:37:29;6.90;;;4.90;;
69026;SDS011;56080;47.594;19.116;2022-08-05T21:42:38;8.50;;;5.50;;
69026;SDS011;56080;47.594;19.116;2022-08-05T21:47:38;8.50;;;5.50;;
69026;SDS011;56080;47.594;19.116;2022-08-05T21:52:38;7.80;;;5.70;;
69026;SDS011;56080;47.594;19.116;2022-08-05T21:57:38;7.80;;;5.70;;
69026;SDS011;56080;47.594;19.116;2022-08-05T22:02:29;8.50;;;5.90;;
69026;SDS011;56080;47.594;19.116;2022-08-05T22:12:37;7.70;;;6.10;;
69026;SDS011;56080;47.594;19.116;2022-08-05T22:17:28;7.70;;;6.10;;
69026;SDS011;56080;47.594;19.116;2022-08-05T22:22:39;6.80;;;4.70;;
69026;SDS011;56080;47.594;19.116;2022-08-05T22:27:38;6.80;;;4.70;;
69026;SDS011;56080;47.594;19.116;2022-08-05T22:32:28;6.80;;;5.00;;
69026;SDS011;56080;47.594;19.116;2022-08-05T22:37:28;6.80;;;5.00;;
69026;SDS011;56080;47.594;19.116;2022-08-05T22:42:37;7.50;;;4.80;;
69026;SDS011;56080;47.594;19.116;2022-08-05T22:47:38;7.50;;;4.80;;
69026;SDS011;56080;47.594;19.116;2022-08-05T22:57:29;7.20;;;5.10;;
69026;SDS011;56080;47.594;19.116;2022-08-05T23:02:38;8.60;;;5.60;;
69026;SDS011;56080;47.594;19.116;2022-08-05T23:07:29;8.60;;;5.60;;
69026;SDS011;56080;47.594;19.116;2022-08-05T23:12:34;8.00;;;5.50;;
69026;SDS011;56080;47.594;19.116;2022-08-05T23:17:35;8.00;;;5.50;;
69026;SDS011;56080;47.594;19.116;2022-08-05T23:22:38;7.50;;;5.80;;
69026;SDS011;56080;47.594;19.116;2022-08-05T23:27:30;7.50;;;5.80;;
69026;SDS011;56080;47.594;19.116;2022-08-05T23:32:33;6.40;;;5.20;;
69026;SDS011;56080;47.594;19.116;2022-08-05T23:37:28;6.40;;;5.20;;
69026;SDS011;56080;47.594;19.116;2022-08-05T23:42:39;6.90;;;5.30;;
69026;SDS011;56080;47.594;19.116;2022-08-05T23:47:28;6.90;;;5.30;;
69026;SDS011;56080;47.594;19.116;2022-08-05T23:52:38;7.30;;;6.30;;
69026;SDS011;56080;47.594;19.116;2022-08-05T23:57:29;7.30;;;6.30;;
